Time;durP1;ratioP1;P1;durP2;ratioP2;P2;SDS_P1;SDS_P2;PMS_P1;PMS_P2;Temp;Humidity;BMP_temperature;BMP_pressure;BME280_temperature;BME280_humidity;BME280_pressure;Samples;Min_cycle;Max_cycle;Signal;HPM_P1;HPM_P2
2023/07/18 00:00:46;;;;;;;6.80;4.25;;;;;16.00;96892.00;;;;8276161;28;20202;-63
2023/07/18 00:04:57;;;;;;;6.78;3.92;;;;;16.00;96890.00;;;;8267618;28;20349;-64
2023/07/18 00:09:00;;;;;;;4.85;3.78;;;;;16.10;96893.00;;;;8255027;28;20229;-65
2023/07/18 00:13:04;;;;;;;10.85;4.38;;;;;16.10;96891.00;;;;8259947;28;20679;-64
2023/07/18 00:17:09;;;;;;;5.93;4.13;;;;;16.00;96892.00;;;;8268417;28;20227;-64
2023/07/18 00:21:17;;;;;;;12.60;4.43;;;;;15.90;96895.00;;;;8281569;28;20731;-64
2023/07/18 00:25:25;;;;;;;7.65;4.00;;;;;15.80;96896.00;;;;8280522;28;20206;-64
2023/07/18 00:29:35;;;;;;;5.95;4.00;;;;;15.80;96889.00;;;;8283936;28;20197;-64
2023/07/18 00:33:41;;;;;;;11.23;4.30;;;;;15.70;96895.00;;;;8278144;28;20667;-65
2023/07/18 00:37:46;;;;;;;8.32;4.40;;;;;15.70;96899.00;;;;8277629;28;20817;-64
2023/07/18 00:41:53;;;;;;;7.00;3.92;;;;;15.60;96906.00;;;;8278211;28;20302;-63
2023/07/18 00:46:05;;;;;;;11.23;4.30;;;;;15.60;96899.00;;;;8267380;28;20216;-64
2023/07/18 00:50:10;;;;;;;9.30;4.22;;;;;15.50;96892.00;;;;8281635;28;20198;-64
2023/07/18 00:54:21;;;;;;;10.18;4.22;;;;;15.30;96893.00;;;;8284181;28;20627;-64
2023/07/18 00:58:30;;;;;;;8.30;4.53;;;;;15.10;96889.00;;;;8288130;28;20265;-64
2023/07/18 01:02:34;;;;;;;9.25;4.57;;;;;15.10;96886.00;;;;8267095;28;20872;-63
2023/07/18 01:06:38;;;;;;;6.38;3.78;;;;;15.10;96880.00;;;;8279796;28;20245;-64
2023/07/18 01:10:43;;;;;;;25.02;4.45;;;;;14.90;96879.00;;;;8275364;28;20212;-63
2023/07/18 01:14:47;;;;;;;9.10;4.57;;;;;14.70;96886.00;;;;8277023;28;20668;-64
2023/07/18 01:18:55;;;;;;;5.95;4.32;;;;;14.70;96890.00;;;;8271932;28;20292;-65
2023/07/18 01:23:03;;;;;;;7.85;4.22;;;;;14.70;96885.00;;;;8273015;28;20232;-64
2023/07/18 01:27:08;;;;;;;11.02;4.90;;;;;14.70;96871.00;;;;8279903;28;20197;-63
2023/07/18 01:31:13;;;;;;;5.38;3.90;;;;;14.60;96873.00;;;;8277480;28;20276;-64
2023/07/18 01:35:19;;;;;;;7.97;4.18;;;;;14.50;96861.00;;;;8273716;28;20296;-64
2023/07/18 01:39:26;;;;;;;11.00;4.40;;;;;14.60;96870.00;;;;8272430;28;20202;-64
2023/07/18 01:43:32;;;;;;;6.38;3.97;;;;;14.60;96871.00;;;;8277781;28;20241;-66
2023/07/18 01:47:36;;;;;;;13.23;4.35;;;;;14.60;96867.00;;;;8277326;28;20225;-65
2023/07/18 01:51:39;;;;;;;7.32;4.07;;;;;14.60;96866.00;;;;8266398;28;20203;-63
2023/07/18 01:55:49;;;;;;;7.22;4.00;;;;;14.60;96864.00;;;;8258098;28;20719;-64
2023/07/18 01:59:55;;;;;;;8.30;4.35;;;;;14.50;96859.00;;;;8264556;28;20286;-64
2023/07/18 02:03:58;;;;;;;6.00;3.95;;;;;14.40;96868.00;;;;8278554;28;20754;-64
2023/07/18 02:08:07;;;;;;;5.30;3.78;;;;;14.50;96862.00;;;;8279424;28;20467;-64
2023/07/18 02:12:12;;;;;;;8.65;4.15;;;;;14.50;96863.00;;;;8277474;28;20714;-65
2023/07/18 02:16:15;;;;;;;5.00;4.05;;;;;14.40;96868.00;;;;8284540;28;20718;-63
2023/07/18 02:20:20;;;;;;;9.02;3.85;;;;;14.40;96865.00;;;;8269319;28;20245;-63
2023/07/18 02:24:26;;;;;;;7.88;4.05;;;;;14.50;96864.00;;;;8275403;28;20201;-65
2023/07/18 02:28:31;;;;;;;10.18;4.57;;;;;14.50;96863.00;;;;8260776;28;20198;-64
2023/07/18 02:32:36;;;;;;;5.47;3.97;;;;;14.50;96865.00;;;;8281071;28;20293;-64
2023/07/18 02:36:39;;;;;;;9.63;4.68;;;;;14.50;96861.00;;;;8272017;28;20226;-63
2023/07/18 02:40:44;;;;;;;6.35;4.28;;;;;14.40;96864.00;;;;8271007;28;20216;-64
2023/07/18 02:44:51;;;;;;;7.93;3.92;;;;;14.40;96866.00;;;;8283734;28;20224;-63
2023/07/18 02:48:54;;;;;;;5.63;4.22;;;;;14.40;96865.00;;;;8264221;28;20215;-63
2023/07/18 02:53:00;;;;;;;6.90;3.90;;;;;14.30;96876.00;;;;8277797;28;20296;-63
2023/07/18 02:57:04;;;;;;;8.40;3.70;;;;;14.30;96872.00;;;;8271363;28;20226;-63
2023/07/18 03:05:27;;;;;;;5.40;4.03;;;;;14.10;96871.00;;;;8281362;28;20625;-64
2023/07/18 03:09:33;;;;;;;10.65;5.03;;;;;13.90;96878.00;;;;8287841;28;20220;-64
2023/07/18 03:13:38;;;;;;;9.48;4.03;;;;;13.70;96886.00;;;;8287319;28;20304;-62
2023/07/18 03:17:42;;;;;;;8.35;4.60;;;;;13.70;96873.00;;;;8281680;28;20837;-64
2023/07/18 03:21:47;;;;;;;9.73;4.72;;;;;13.80;96883.00;;;;8288461;28;20626;-62
2023/07/18 03:25:50;;;;;;;8.13;4.20;;;;;14.00;96893.00;;;;8286774;28;20707;-62
2023/07/18 03:29:53;;;;;;;9.15;4.18;;;;;14.30;96889.00;;;;8287706;28;20636;-62
2023/07/18 03:34:04;;;;;;;12.02;4.82;;;;;14.30;96894.00;;;;8285407;28;20206;-62
2023/07/18 03:38:09;;;;;;;8.57;4.43;;;;;14.10;96893.00;;;;8285556;28;20320;-62
2023/07/18 03:42:12;;;;;;;6.88;4.30;;;;;14.00;96897.00;;;;8286407;28;20434;-64
2023/07/18 03:46:19;;;;;;;12.23;4.93;;;;;14.00;96894.00;;;;8286154;28;20201;-63
2023/07/18 03:50:23;;;;;;;10.63;4.70;;;;;14.00;96902.00;;;;8287027;28;20264;-62
2023/07/18 03:54:30;;;;;;;10.52;4.85;;;;;13.90;96908.00;;;;8286392;28;20213;-63
2023/07/18 03:58:36;;;;;;;9.48;5.07;;;;;13.90;96897.00;;;;8291878;28;20328;-63
2023/07/18 04:02:39;;;;;;;8.60;4.55;;;;;14.10;96892.00;;;;8283783;28;20320;-65
2023/07/18 04:06:48;;;;;;;11.50;5.15;;;;;14.10;96895.00;;;;8279171;28;20567;-63
2023/07/18 04:10:55;;;;;;;12.85;4.38;;;;;14.40;96882.00;;;;8277989;28;20626;-63
2023/07/18 04:14:59;;;;;;;7.80;4.40;;;;;14.50;96891.00;;;;8281640;28;20648;-62
2023/07/18 04:19:02;;;;;;;9.85;4.40;;;;;14.60;96904.00;;;;8285695;28;20317;-63
2023/07/18 04:23:08;;;;;;;6.07;4.07;;;;;14.80;96902.00;;;;8284955;28;20777;-62
2023/07/18 04:27:13;;;;;;;8.05;4.20;;;;;15.20;96897.00;;;;8284524;28;20208;-63
2023/07/18 04:31:16;;;;;;;8.13;4.57;;;;;15.40;96894.00;;;;8283348;28;20213;-63
2023/07/18 04:35:21;;;;;;;8.02;4.30;;;;;15.70;96901.00;;;;8286298;28;20287;-63
2023/07/18 04:39:25;;;;;;;7.30;3.88;;;;;15.80;96903.00;;;;8284917;28;20746;-63
2023/07/18 04:43:31;;;;;;;7.60;4.20;;;;;16.00;96897.00;;;;8284846;28;20667;-62
2023/07/18 04:47:36;;;;;;;9.57;4.97;;;;;16.30;96899.00;;;;8285090;28;20199;-63
2023/07/18 04:51:41;;;;;;;6.65;4.65;;;;;16.70;96888.00;;;;8278100;28;20214;-63
2023/07/18 04:55:45;;;;;;;7.47;4.40;;;;;17.00;96888.00;;;;8273983;28;20640;-63
2023/07/18 04:59:50;;;;;;;8.40;3.95;;;;;17.40;96882.00;;;;8281875;28;20234;-63
2023/07/18 05:03:53;;;;;;;13.02;4.43;;;;;17.90;96888.00;;;;8284534;28;20238;-64
2023/07/18 05:08:02;;;;;;;6.18;3.85;;;;;18.30;96883.00;;;;8266327;28;20210;-63
2023/07/18 05:12:07;;;;;;;7.20;4.00;;;;;18.50;96871.00;;;;8282452;28;20663;-63
2023/07/18 05:16:14;;;;;;;6.15;3.95;;;;;18.90;96872.00;;;;8278669;28;20289;-63
2023/07/18 05:20:20;;;;;;;7.32;4.20;;;;;19.30;96869.00;;;;8278090;28;20220;-62
2023/07/18 05:24:26;;;;;;;6.30;4.47;;;;;19.70;96883.00;;;;8283999;28;20206;-65
2023/07/18 05:28:29;;;;;;;7.47;4.70;;;;;20.00;96877.00;;;;8285399;28;20240;-66
2023/07/18 05:32:33;;;;;;;6.78;3.67;;;;;20.30;96883.00;;;;8277087;28;20297;-66
2023/07/18 05:36:39;;;;;;;6.90;4.38;;;;;20.50;96883.00;;;;8285869;28;20804;-65
2023/07/18 05:40:44;;;;;;;5.28;3.67;;;;;20.70;96889.00;;;;8286494;28;20243;-66
2023/07/18 05:44:50;;;;;;;6.38;4.05;;;;;20.90;96886.00;;;;8279639;28;20627;-67
2023/07/18 05:48:54;;;;;;;14.25;4.60;;;;;21.20;96882.00;;;;8290065;28;20202;-66
2023/07/18 05:53:07;;;;;;;8.48;4.13;;;;;21.40;96879.00;;;;8291087;28;20242;-66
2023/07/18 05:57:15;;;;;;;7.45;3.33;;;;;21.60;96870.00;;;;8283597;28;20233;-66
2023/07/18 06:01:18;;;;;;;7.88;3.67;;;;;21.80;96863.00;;;;8265343;28;20321;-67
2023/07/18 06:05:26;;;;;;;9.85;3.67;;;;;22.20;96871.00;;;;8272495;28;20202;-67
2023/07/18 06:09:29;;;;;;;9.80;3.78;;;;;22.70;96872.00;;;;8281328;28;20294;-68
2023/07/18 06:13:37;;;;;;;6.05;3.15;;;;;23.20;96870.00;;;;8283437;28;20373;-67
2023/07/18 06:17:43;;;;;;;4.65;3.17;;;;;24.00;96875.00;;;;8287647;28;20234;-67
2023/07/18 06:21:48;;;;;;;7.70;3.35;;;;;24.50;96874.00;;;;8282793;28;20761;-67
2023/07/18 06:25:54;;;;;;;7.47;3.13;;;;;24.90;96874.00;;;;8273168;28;20225;-67
2023/07/18 06:29:57;;;;;;;5.95;3.25;;;;;25.00;96879.00;;;;8281225;28;20305;-68
2023/07/18 06:34:00;;;;;;;6.93;3.03;;;;;25.40;96882.00;;;;8280990;28;20225;-68
2023/07/18 06:38:07;;;;;;;6.28;2.78;;;;;26.00;96873.00;;;;8287480;28;20624;-67
2023/07/18 06:42:13;;;;;;;7.47;3.60;;;;;26.80;96874.00;;;;8289148;28;20202;-67
2023/07/18 06:46:17;;;;;;;7.65;3.50;;;;;27.40;96875.00;;;;8285316;28;20774;-67
2023/07/18 06:50:20;;;;;;;9.13;3.65;;;;;27.90;96879.00;;;;8283758;28;20241;-69
2023/07/18 06:54:24;;;;;;;5.88;3.80;;;;;28.20;96877.00;;;;8282179;28;20369;-71
2023/07/18 06:58:28;;;;;;;5.95;3.10;;;;;28.60;96871.00;;;;8280651;28;20244;-70
2023/07/18 07:02:33;;;;;;;5.03;3.67;;;;;29.10;96872.00;;;;8261554;28;20359;-70
2023/07/18 07:06:45;;;;;;;6.28;3.55;;;;;29.30;96870.00;;;;8263901;28;20202;-69
2023/07/18 07:11:07;;;;;;;4.68;2.88;;;;;28.50;96862.00;;;;8263746;28;20214;-71
2023/07/18 07:15:11;;;;;;;4.50;2.95;;;;;28.00;96868.00;;;;8261722;28;20203;-69
2023/07/18 07:19:18;;;;;;;4.55;2.90;;;;;27.80;96863.00;;;;8280031;28;20296;-70
2023/07/18 07:23:32;;;;;;;6.15;3.30;;;;;27.40;96859.00;;;;8272931;28;20242;-69
2023/07/18 07:27:37;;;;;;;6.88;3.42;;;;;27.40;96855.00;;;;8282480;28;20205;-69
2023/07/18 07:31:43;;;;;;;10.13;3.20;;;;;27.50;96857.00;;;;8285190;28;20361;-68
2023/07/18 07:35:46;;;;;;;7.55;3.15;;;;;27.80;96838.00;;;;8269707;28;20692;-72
2023/07/18 07:39:53;;;;;;;6.60;2.70;;;;;28.40;96839.00;;;;8276546;28;20272;-69
2023/07/18 07:43:58;;;;;;;10.32;3.15;;;;;29.00;96835.00;;;;8270837;28;20240;-70
2023/07/18 07:48:01;;;;;;;4.80;2.95;;;;;29.80;96838.00;;;;8277613;28;20245;-69
2023/07/18 07:52:05;;;;;;;7.30;2.75;;;;;30.10;96829.00;;;;8267101;28;20308;-70
2023/07/18 07:56:08;;;;;;;5.35;2.97;;;;;30.50;96828.00;;;;8272154;28;20687;-70
2023/07/18 08:00:18;;;;;;;6.90;3.05;;;;;31.20;96823.00;;;;8273928;28;20730;-70
2023/07/18 08:04:22;;;;;;;3.00;2.70;;;;;32.10;96818.00;;;;8259682;28;20230;-70
2023/07/18 08:08:25;;;;;;;4.97;2.78;;;;;32.60;96815.00;;;;8276313;28;20210;-70
2023/07/18 08:12:38;;;;;;;4.15;2.47;;;;;32.60;96807.00;;;;8270007;28;20293;-69
2023/07/18 08:16:42;;;;;;;4.88;2.95;;;;;32.80;96805.00;;;;8275336;28;20202;-71
2023/07/18 08:20:45;;;;;;;4.53;2.40;;;;;33.10;96801.00;;;;8272867;28;20230;-69
2023/07/18 08:24:48;;;;;;;5.43;3.08;;;;;33.20;96802.00;;;;8276855;28;20285;-70
2023/07/18 08:28:52;;;;;;;3.33;2.10;;;;;33.30;96799.00;;;;8269674;28;20215;-71
2023/07/18 08:32:59;;;;;;;3.67;2.08;;;;;33.70;96797.00;;;;8276779;28;20694;-70
2023/07/18 08:37:05;;;;;;;2.63;1.90;;;;;34.10;96787.00;;;;8274860;28;20704;-70
2023/07/18 08:41:09;;;;;;;3.50;2.25;;;;;34.40;96789.00;;;;8273511;28;20349;-70
2023/07/18 08:45:15;;;;;;;2.63;2.03;;;;;34.60;96785.00;;;;8272802;28;20281;-71
2023/07/18 08:49:22;;;;;;;3.63;2.53;;;;;34.70;96775.00;;;;8281080;28;20678;-69
2023/07/18 08:53:25;;;;;;;4.68;2.20;;;;;35.00;96778.00;;;;8258686;28;20298;-70
2023/07/18 08:57:30;;;;;;;4.03;2.30;;;;;35.50;96768.00;;;;8272491;28;20246;-70
2023/07/18 09:01:36;;;;;;;7.70;2.42;;;;;35.30;96773.00;;;;8276191;28;20706;-74
2023/07/18 09:05:43;;;;;;;3.85;2.72;;;;;35.30;96769.00;;;;8284871;28;20283;-71
2023/07/18 09:09:47;;;;;;;3.92;2.67;;;;;35.00;96769.00;;;;8275980;28;20199;-72
2023/07/18 09:13:50;;;;;;;4.68;2.63;;;;;34.30;96766.00;;;;8262428;28;20310;-71
2023/07/18 09:17:55;;;;;;;3.30;2.55;;;;;33.80;96751.00;;;;8281568;28;20206;-71
2023/07/18 09:22:00;;;;;;;5.82;2.70;;;;;33.50;96753.00;;;;8282980;28;20657;-70
2023/07/18 09:26:08;;;;;;;6.82;3.20;;;;;33.50;96750.00;;;;8283781;28;20239;-73
2023/07/18 09:30:15;;;;;;;4.97;2.83;;;;;33.80;96748.00;;;;8277568;28;20214;-71
2023/07/18 09:34:19;;;;;;;4.43;2.50;;;;;34.40;96741.00;;;;8281704;28;21110;-72
2023/07/18 09:38:26;;;;;;;5.97;2.80;;;;;35.30;96739.00;;;;8275277;28;20233;-73
2023/07/18 09:42:32;;;;;;;4.63;2.58;;;;;36.10;96733.00;;;;8278911;28;20794;-69
2023/07/18 09:46:35;;;;;;;4.93;2.90;;;;;37.00;96727.00;;;;8269410;28;20675;-73
2023/07/18 09:50:41;;;;;;;6.65;3.40;;;;;37.20;96721.00;;;;8282947;28;20290;-73
2023/07/18 09:54:49;;;;;;;4.65;2.65;;;;;37.40;96721.00;;;;8274826;28;20294;-70
2023/07/18 09:58:54;;;;;;;2.90;2.42;;;;;37.70;96705.00;;;;8273966;28;20317;-74
2023/07/18 10:02:57;;;;;;;6.50;3.20;;;;;38.10;96711.00;;;;8282061;28;20258;-73
2023/07/18 10:07:02;;;;;;;3.10;2.80;;;;;38.10;96696.00;;;;8276706;28;20261;-72
2023/07/18 10:11:09;;;;;;;6.72;2.47;;;;;38.50;96702.00;;;;8275750;28;20198;-73
2023/07/18 10:15:12;;;;;;;6.20;3.17;;;;;38.60;96691.00;;;;8274189;28;20678;-70
2023/07/18 10:19:23;;;;;;;4.05;2.83;;;;;37.40;96684.00;;;;8272136;28;20309;-73
2023/07/18 10:23:40;;;;;;;5.55;2.80;;;;;36.70;96679.00;;;;8276802;28;20215;-71
2023/07/18 10:27:46;;;;;;;4.05;2.85;;;;;37.00;96664.00;;;;8284555;28;20201;-71
2023/07/18 10:31:54;;;;;;;6.10;3.05;;;;;37.30;96653.00;;;;8267398;28;20297;-71
2023/07/18 10:35:57;;;;;;;5.57;2.97;;;;;37.40;96659.00;;;;8279937;28;20288;-71
2023/07/18 10:40:06;;;;;;;4.15;2.80;;;;;38.10;96661.00;;;;8276761;28;20854;-74
2023/07/18 10:44:13;;;;;;;3.50;2.92;;;;;38.20;96673.00;;;;8272200;28;20604;-74
2023/07/18 10:48:20;;;;;;;6.70;3.08;;;;;38.00;96659.00;;;;8272040;28;20663;-72
2023/07/18 10:52:23;;;;;;;3.40;2.90;;;;;37.60;96655.00;;;;8276025;28;20230;-71
2023/07/18 10:56:30;;;;;;;5.53;2.97;;;;;37.50;96645.00;;;;8272169;28;20222;-71
2023/07/18 11:00:36;;;;;;;6.70;2.60;;;;;37.70;96651.00;;;;8277380;28;20741;-71
2023/07/18 11:04:42;;;;;;;3.83;2.60;;;;;38.00;96663.00;;;;8268612;28;20264;-72
2023/07/18 11:08:46;;;;;;;8.05;2.80;;;;;38.50;96643.00;;;;8281814;28;20297;-71
2023/07/18 11:12:49;;;;;;;6.18;2.67;;;;;38.70;96630.00;;;;8279470;28;20293;-71
2023/07/18 11:16:55;;;;;;;4.65;2.67;;;;;38.70;96638.00;;;;8273627;28;20221;-71
2023/07/18 11:21:01;;;;;;;3.15;2.70;;;;;38.90;96633.00;;;;8270909;28;20226;-71
2023/07/18 11:25:11;;;;;;;5.10;2.88;;;;;38.80;96629.00;;;;8280589;28;20255;-72
2023/07/18 11:29:14;;;;;;;9.55;3.10;;;;;39.10;96643.00;;;;8273814;28;20663;-72
2023/07/18 11:33:23;;;;;;;5.53;2.67;;;;;39.50;96628.00;;;;8281711;28;20253;-71
2023/07/18 11:37:26;;;;;;;4.15;2.60;;;;;39.90;96631.00;;;;8282305;28;20210;-73
2023/07/18 11:41:34;;;;;;;5.15;2.78;;;;;39.50;96628.00;;;;8279127;28;20229;-72
2023/07/18 11:45:37;;;;;;;10.18;3.15;;;;;38.50;96641.00;;;;8278517;28;20209;-71
2023/07/18 11:49:46;;;;;;;7.38;3.30;;;;;37.80;96612.00;;;;8272934;28;20232;-71
2023/07/18 11:53:53;;;;;;;3.42;2.83;;;;;36.40;96592.00;;;;8278939;28;20289;-71
2023/07/18 11:58:07;;;;;;;8.05;3.85;;;;;35.70;96567.00;;;;8270937;28;20242;-73
2023/07/18 12:02:13;;;;;;;3.17;2.78;;;;;35.60;96551.00;;;;8276483;28;20328;-72
2023/07/18 12:06:18;;;;;;;4.10;3.00;;;;;35.30;96544.00;;;;8268262;28;20206;-73
2023/07/18 12:10:22;;;;;;;3.35;2.50;;;;;35.00;96532.00;;;;8256861;28;20349;-70
2023/07/18 12:14:30;;;;;;;3.33;3.03;;;;;35.00;96495.00;;;;8270719;28;20671;-71
2023/07/18 12:18:33;;;;;;;6.25;2.97;;;;;35.20;96461.00;;;;8280001;28;21010;-72
2023/07/18 12:22:39;;;;;;;6.45;2.58;;;;;35.50;96447.00;;;;8274381;28;20297;-71
2023/07/18 12:26:43;;;;;;;4.70;3.03;;;;;35.50;96508.00;;;;8258408;28;20210;-70
2023/07/18 12:30:50;;;;;;;4.97;3.08;;;;;35.30;96564.00;;;;8277166;28;20241;-70
2023/07/18 12:34:56;;;;;;;6.70;2.75;;;;;35.00;96569.00;;;;8269986;28;20206;-72
2023/07/18 12:39:02;;;;;;;4.00;2.97;;;;;34.90;96599.00;;;;8276560;28;20222;-71
2023/07/18 12:43:11;;;;;;;4.95;3.00;;;;;34.50;96623.00;;;;8269690;28;20218;-70
2023/07/18 12:47:14;;;;;;;3.78;2.90;;;;;34.10;96658.00;;;;8276808;28;20233;-73
2023/07/18 12:51:20;;;;;;;4.30;3.00;;;;;33.80;96685.00;;;;8285600;28;20233;-71
2023/07/18 12:55:24;;;;;;;4.00;2.92;;;;;33.10;96697.00;;;;8285043;28;20881;-71
2023/07/18 12:59:28;;;;;;;4.32;3.00;;;;;32.50;96678.00;;;;8278830;28;20336;-70
2023/07/18 13:03:31;;;;;;;5.07;3.05;;;;;31.90;96650.00;;;;8278840;28;20249;-71
2023/07/18 13:07:38;;;;;;;5.90;3.30;;;;;31.40;96625.00;;;;8275168;28;20293;-71
2023/07/18 13:11:42;;;;;;;7.00;3.05;;;;;31.20;96583.00;;;;8268845;28;20198;-74
2023/07/18 13:15:47;;;;;;;5.88;3.10;;;;;31.20;96554.00;;;;8282833;28;20289;-71
2023/07/18 13:19:50;;;;;;;9.52;3.08;;;;;31.20;96560.00;;;;8266197;28;20233;-69
2023/07/18 13:23:58;;;;;;;4.53;3.00;;;;;31.00;96574.00;;;;8267708;28;20301;-69
2023/07/18 13:28:03;;;;;;;5.85;3.28;;;;;30.80;96564.00;;;;8268270;28;20229;-68
2023/07/18 13:32:09;;;;;;;7.78;3.78;;;;;30.70;96495.00;;;;8284419;28;20237;-72
2023/07/18 13:36:12;;;;;;;6.88;3.85;;;;;30.70;96485.00;;;;8280623;28;20264;-69
2023/07/18 13:40:17;;;;;;;5.30;3.78;;;;;31.40;96479.00;;;;8283791;28;20238;-72
2023/07/18 13:44:25;;;;;;;6.28;3.50;;;;;32.50;96477.00;;;;8282063;28;20893;-69
2023/07/18 13:48:29;;;;;;;5.85;3.00;;;;;33.50;96468.00;;;;8279065;28;20210;-70
2023/07/18 13:52:33;;;;;;;8.27;3.45;;;;;34.00;96454.00;;;;8283677;28;20214;-69
2023/07/18 13:56:39;;;;;;;4.28;3.30;;;;;34.50;96448.00;;;;8272653;28;20213;-71
2023/07/18 14:00:46;;;;;;;4.20;3.50;;;;;35.00;96434.00;;;;8265957;28;20328;-71
2023/07/18 14:04:49;;;;;;;6.45;3.30;;;;;34.90;96439.00;;;;8275291;28;20245;-73
2023/07/18 14:08:56;;;;;;;4.63;3.15;;;;;34.90;96440.00;;;;8271102;28;20214;-69
2023/07/18 14:13:01;;;;;;;3.10;2.80;;;;;34.70;96436.00;;;;8283442;28;20205;-69
2023/07/18 14:17:08;;;;;;;3.45;3.15;;;;;34.40;96431.00;;;;8274461;28;20213;-70
2023/07/18 14:21:12;;;;;;;4.25;3.20;;;;;34.10;96419.00;;;;8284165;28;21028;-71
2023/07/18 14:25:15;;;;;;;11.75;3.47;;;;;34.20;96427.00;;;;8277700;28;20234;-70
2023/07/18 14:29:19;;;;;;;4.45;3.60;;;;;34.20;96416.00;;;;8275643;28;20206;-69
2023/07/18 14:33:24;;;;;;;4.95;3.55;;;;;34.10;96393.00;;;;8266514;28;20229;-70
2023/07/18 14:37:29;;;;;;;3.92;3.05;;;;;33.90;96395.00;;;;8280831;28;20708;-75
2023/07/18 14:41:33;;;;;;;3.55;3.05;;;;;34.10;96386.00;;;;8279631;28;20276;-69
2023/07/18 14:45:37;;;;;;;5.25;3.45;;;;;34.40;96379.00;;;;8280806;28;20245;-72
2023/07/18 14:49:44;;;;;;;6.45;3.53;;;;;34.80;96377.00;;;;8286919;28;20369;-69
2023/07/18 14:53:50;;;;;;;3.47;3.17;;;;;34.60;96374.00;;;;8278320;28;20207;-70
2023/07/18 14:57:56;;;;;;;6.00;3.63;;;;;34.30;96374.00;;;;8281087;28;20734;-69
2023/07/18 15:01:59;;;;;;;4.57;3.33;;;;;34.50;96374.00;;;;8272673;28;20317;-69
2023/07/18 15:06:04;;;;;;;5.82;3.38;;;;;35.10;96382.00;;;;8276832;28;20207;-73
2023/07/18 15:10:08;;;;;;;3.08;2.70;;;;;35.40;96385.00;;;;8283057;28;20205;-68
2023/07/18 15:14:15;;;;;;;6.40;3.53;;;;;34.90;96388.00;;;;8286556;28;20202;-69
2023/07/18 15:18:18;;;;;;;6.22;3.67;;;;;34.80;96376.00;;;;8289206;28;20323;-71
2023/07/18 15:22:23;;;;;;;3.58;3.20;;;;;34.90;96369.00;;;;8280287;28;20325;-71
2023/07/18 15:26:26;;;;;;;7.13;3.45;;;;;34.70;96370.00;;;;8282194;28;20298;-73
2023/07/18 15:30:30;;;;;;;3.65;3.33;;;;;34.30;96377.00;;;;8274623;28;20295;-70
2023/07/18 15:34:33;;;;;;;11.38;3.40;;;;;34.10;96378.00;;;;8278356;28;20237;-72
2023/07/18 15:38:41;;;;;;;4.00;3.60;;;;;34.00;96365.00;;;;8285004;28;20242;-73
2023/07/18 15:42:48;;;;;;;5.65;3.50;;;;;33.90;96360.00;;;;8286247;28;20226;-69
2023/07/18 15:46:59;;;;;;;5.00;3.63;;;;;34.00;96350.00;;;;8264264;28;20218;-70
2023/07/18 15:51:04;;;;;;;8.77;3.70;;;;;34.00;96345.00;;;;8279566;28;20234;-71
2023/07/18 15:55:11;;;;;;;4.68;3.50;;;;;33.90;96331.00;;;;8278499;28;20301;-69
2023/07/18 15:59:14;;;;;;;5.53;3.45;;;;;33.80;96335.00;;;;8263277;28;20203;-72
2023/07/18 16:03:20;;;;;;;5.63;3.35;;;;;33.30;96320.00;;;;8276404;28;20248;-71
2023/07/18 16:07:23;;;;;;;8.07;3.38;;;;;33.20;96316.00;;;;8276979;28;20206;-70
2023/07/18 16:11:29;;;;;;;4.97;3.22;;;;;33.20;96301.00;;;;8274193;28;20207;-68
2023/07/18 16:15:33;;;;;;;6.30;3.42;;;;;33.10;96289.00;;;;8271146;28;20681;-71
2023/07/18 16:19:40;;;;;;;9.15;3.67;;;;;33.20;96284.00;;;;8274800;28;20202;-69
2023/07/18 16:23:48;;;;;;;5.07;3.60;;;;;33.20;96266.00;;;;8273990;28;20230;-70
2023/07/18 16:27:52;;;;;;;4.20;3.78;;;;;33.10;96245.00;;;;8278239;28;20263;-74
2023/07/18 16:31:56;;;;;;;4.15;3.60;;;;;33.10;96235.00;;;;8261321;28;20288;-69
2023/07/18 16:36:00;;;;;;;3.95;3.50;;;;;33.50;96223.00;;;;8266266;28;20277;-69
2023/07/18 16:40:05;;;;;;;5.68;4.07;;;;;34.00;96219.00;;;;8270043;28;20306;-70
2023/07/18 16:44:10;;;;;;;5.13;3.60;;;;;34.60;96215.00;;;;8269397;28;20230;-68
2023/07/18 16:48:13;;;;;;;4.40;3.40;;;;;35.00;96201.00;;;;8272607;28;20285;-72
2023/07/18 16:52:16;;;;;;;6.25;3.53;;;;;35.10;96188.00;;;;8279049;28;20321;-68
2023/07/18 16:56:20;;;;;;;4.88;3.55;;;;;35.60;96188.00;;;;8266991;28;20221;-70
2023/07/18 17:00:25;;;;;;;3.97;3.50;;;;;36.00;96179.00;;;;8281878;28;20235;-74
2023/07/18 17:04:49;;;;;;;4.60;3.53;;;;;35.80;96173.00;;;;8279597;28;20241;-70
2023/07/18 17:08:53;;;;;;;9.57;4.10;;;;;36.00;96173.00;;;;8273622;28;20243;-71
2023/07/18 17:13:03;;;;;;;8.20;4.00;;;;;36.50;96180.00;;;;8281912;28;20204;-70
2023/07/18 17:17:10;;;;;;;7.65;3.78;;;;;36.90;96183.00;;;;8271394;28;20199;-70
2023/07/18 17:21:19;;;;;;;7.60;3.53;;;;;37.10;96201.00;;;;8285974;28;20230;-71
2023/07/18 17:25:26;;;;;;;3.40;3.10;;;;;37.10;96217.00;;;;8282813;28;20207;-71
2023/07/18 17:29:31;;;;;;;6.70;3.47;;;;;36.90;96203.00;;;;8270527;28;20214;-70
2023/07/18 17:33:38;;;;;;;5.05;3.53;;;;;36.70;96201.00;;;;8281481;28;20277;-70
2023/07/18 17:37:41;;;;;;;3.78;3.03;;;;;36.70;96211.00;;;;8278872;28;20797;-70
2023/07/18 17:41:44;;;;;;;5.28;3.45;;;;;36.50;96212.00;;;;8264453;28;20230;-72
2023/07/18 17:45:49;;;;;;;5.30;3.30;;;;;36.60;96228.00;;;;8282617;28;20206;-69
2023/07/18 17:49:53;;;;;;;5.45;3.20;;;;;36.30;96223.00;;;;8288026;28;20291;-72
2023/07/18 17:53:59;;;;;;;9.95;3.35;;;;;35.40;96230.00;;;;8271408;28;20194;-75
2023/07/18 17:58:04;;;;;;;4.90;3.53;;;;;34.80;96236.00;;;;8268677;28;20199;-69
2023/07/18 18:02:08;;;;;;;8.48;3.58;;;;;34.10;96251.00;;;;8278653;28;20317;-70
2023/07/18 18:06:12;;;;;;;8.70;3.55;;;;;33.40;96240.00;;;;8279337;28;20209;-73
2023/07/18 18:10:16;;;;;;;4.63;3.40;;;;;32.70;96240.00;;;;8276185;28;20289;-69
2023/07/18 18:14:19;;;;;;;7.05;3.50;;;;;32.00;96241.00;;;;8275075;28;20225;-72
2023/07/18 18:18:28;;;;;;;4.00;3.58;;;;;31.50;96238.00;;;;8278391;28;20289;-71
2023/07/18 18:22:33;;;;;;;11.02;3.45;;;;;30.90;96242.00;;;;8281586;28;20233;-72
2023/07/18 18:26:37;;;;;;;6.35;3.63;;;;;30.50;96237.00;;;;8280161;28;20202;-71
2023/07/18 18:30:40;;;;;;;10.85;4.18;;;;;29.90;96233.00;;;;8283006;28;20241;-69
2023/07/18 18:34:44;;;;;;;10.95;3.83;;;;;29.30;96230.00;;;;8290513;28;20768;-71
2023/07/18 18:39:08;;;;;;;9.85;3.83;;;;;28.70;96219.00;;;;8288569;28;20206;-72
2023/07/18 18:43:11;;;;;;;6.47;3.80;;;;;28.30;96228.00;;;;8275953;28;20770;-71
2023/07/18 18:47:14;;;;;;;7.13;3.38;;;;;27.80;96232.00;;;;8272822;28;20242;-71
2023/07/18 18:51:17;;;;;;;6.43;3.75;;;;;27.40;96242.00;;;;8285334;28;20210;-71
2023/07/18 18:55:22;;;;;;;12.75;3.80;;;;;27.10;96249.00;;;;8282743;28;20537;-71
2023/07/18 18:59:30;;;;;;;17.17;4.18;;;;;26.70;96253.00;;;;8288083;28;20205;-70
2023/07/18 19:03:35;;;;;;;7.03;3.83;;;;;26.30;96248.00;;;;8276763;28;20673;-71
2023/07/18 19:07:38;;;;;;;8.20;3.88;;;;;25.90;96267.00;;;;8276920;28;20206;-68
2023/07/18 19:11:49;;;;;;;8.05;3.88;;;;;25.60;96265.00;;;;8281792;28;20217;-69
2023/07/18 19:15:52;;;;;;;10.57;4.50;;;;;25.30;96233.00;;;;8286157;28;20210;-68
2023/07/18 19:19:56;;;;;;;6.70;3.95;;;;;25.00;96178.00;;;;8286784;28;20202;-70
2023/07/18 19:23:59;;;;;;;7.22;4.10;;;;;24.70;96175.00;;;;8283986;28;20226;-72
2023/07/18 19:28:04;;;;;;;4.57;3.58;;;;;24.60;96152.00;;;;8285667;28;20715;-68
2023/07/18 19:32:11;;;;;;;7.13;3.70;;;;;24.50;96130.00;;;;8280942;28;21020;-71
2023/07/18 19:36:15;;;;;;;6.07;3.40;;;;;24.60;96167.00;;;;8265269;28;20238;-73
2023/07/18 19:40:21;;;;;;;5.22;3.80;;;;;24.70;96160.00;;;;8272258;28;20570;-71
2023/07/18 19:44:25;;;;;;;5.50;3.47;;;;;24.70;96151.00;;;;8269837;28;20234;-68
2023/07/18 19:48:31;;;;;;;6.88;4.30;;;;;24.60;96176.00;;;;8278128;28;20754;-69
2023/07/18 19:52:36;;;;;;;5.07;4.15;;;;;24.50;96208.00;;;;8248593;28;20221;-69
2023/07/18 19:56:45;;;;;;;9.18;3.95;;;;;24.50;96209.00;;;;8268296;28;20635;-70
2023/07/18 20:01:03;;;;;;;7.68;4.15;;;;;24.30;96216.00;;;;8286306;28;20199;-68
2023/07/18 20:05:07;;;;;;;8.02;3.90;;;;;24.20;96223.00;;;;8285764;28;20244;-70
2023/07/18 20:09:16;;;;;;;7.88;4.07;;;;;23.90;96236.00;;;;8285693;28;20294;-71
2023/07/18 20:13:20;;;;;;;8.55;3.83;;;;;23.50;96242.00;;;;8285607;28;20288;-69
2023/07/18 20:17:25;;;;;;;7.82;4.25;;;;;23.20;96263.00;;;;8284649;28;20281;-70
2023/07/18 20:21:30;;;;;;;7.00;3.70;;;;;22.80;96280.00;;;;8286130;28;20940;-69
2023/07/18 20:25:33;;;;;;;10.40;4.60;;;;;22.80;96298.00;;;;8281132;28;20226;-71
2023/07/18 20:29:38;;;;;;;6.32;4.00;;;;;22.80;96298.00;;;;8285805;28;20210;-69